Time;durP1;ratioP1;P1;durP2;ratioP2;P2;SDS_P1;SDS_P2;PMS_P1;PMS_P2;Temp;Humidity;BMP_temperature;BMP_pressure;BME280_temperature;BME280_humidity;BME280_pressure;Samples;Min_cycle;Max_cycle;Signal;HPM_P1;HPM_P2
2023/05/27 00:01:18;;;;;;;20.40;6.05;;;;;;;9.99;100.00;103121.63;5004903;28;20025;-62
2023/05/27 00:03:43;;;;;;;30.70;6.25;;;;;;;9.90;100.00;103117.22;5005581;28;20384;-61
2023/05/27 00:06:08;;;;;;;32.22;6.60;;;;;;;9.91;100.00;103116.34;5006454;28;20408;-61
2023/05/27 00:08:34;;;;;;;25.08;5.45;;;;;;;9.86;100.00;103116.31;5006609;28;20064;-60
2023/05/27 00:10:59;;;;;;;28.17;6.05;;;;;;;9.79;100.00;103109.28;5007092;28;20030;-61
2023/05/27 00:13:24;;;;;;;24.30;5.32;;;;;;;9.70;100.00;103117.09;5006026;28;20080;-62
2023/05/27 00:15:50;;;;;;;28.85;5.97;;;;;;;9.74;100.00;103113.59;5005869;28;20671;-61
2023/05/27 00:18:15;;;;;;;27.35;6.20;;;;;;;9.71;100.00;103109.22;5005793;28;20552;-59
2023/05/27 00:20:41;;;;;;;22.48;5.40;;;;;;;9.73;100.00;103115.34;5007184;28;20030;-61
2023/05/27 00:23:06;;;;;;;23.13;5.18;;;;;;;9.73;100.00;103103.97;5005864;28;20473;-60
2023/05/27 00:25:32;;;;;;;25.85;5.38;;;;;;;9.61;100.00;103092.47;5006911;28;20030;-61
2023/05/27 00:27:57;;;;;;;20.73;5.15;;;;;;;9.66;100.00;103097.75;5018703;28;20025;-62
2023/05/27 00:30:22;;;;;;;24.48;5.57;;;;;;;9.65;100.00;103095.13;5026421;28;20057;-60
2023/05/27 00:32:48;;;;;;;21.25;5.80;;;;;;;9.61;100.00;103097.72;5025771;28;20105;-60
2023/05/27 00:35:13;;;;;;;21.52;4.75;;;;;;;9.56;100.00;103098.56;5009325;28;20036;-60
2023/05/27 00:37:39;;;;;;;18.95;5.10;;;;;;;9.47;100.00;103091.50;5005183;28;20030;-60
2023/05/27 00:40:05;;;;;;;23.92;6.03;;;;;;;9.41;100.00;103094.97;5005591;28;20404;-60
2023/05/27 00:42:30;;;;;;;19.60;4.88;;;;;;;9.37;100.00;103085.31;5005490;28;20080;-59
2023/05/27 00:44:56;;;;;;;17.58;4.65;;;;;;;9.32;100.00;103087.00;5005964;28;20018;-63
2023/05/27 00:47:21;;;;;;;21.85;4.80;;;;;;;9.18;100.00;103089.53;5006080;28;20091;-62
2023/05/27 00:49:48;;;;;;;21.02;4.88;;;;;;;9.16;100.00;103089.53;5004491;28;20038;-60
2023/05/27 00:52:13;;;;;;;23.33;5.07;;;;;;;9.13;100.00;103093.88;5005063;28;20437;-59
2023/05/27 00:54:40;;;;;;;20.15;5.22;;;;;;;9.14;100.00;103095.63;5005890;28;20034;-62
2023/05/27 00:57:05;;;;;;;20.48;5.57;;;;;;;9.08;100.00;103105.25;5005201;28;20737;-60
2023/05/27 00:59:31;;;;;;;23.88;5.45;;;;;;;9.03;100.00;103101.66;5006860;28;20129;-63
2023/05/27 01:01:56;;;;;;;19.77;4.97;;;;;;;9.09;100.00;103099.09;5004281;28;20026;-60
2023/05/27 01:04:22;;;;;;;24.23;5.03;;;;;;;9.10;100.00;103092.09;5009323;28;20117;-62
2023/05/27 01:07:04;;;;;;;31.45;5.40;;;;;;;8.98;100.00;103103.38;5009118;28;20057;-60
2023/05/27 01:09:35;;;;;;;19.10;4.90;;;;;;;8.94;100.00;103091.09;4990928;28;20420;-60
2023/05/27 01:12:10;;;;;;;21.63;4.50;;;;;;;8.96;100.00;103091.97;4989647;28;20473;-61
2023/05/27 01:14:37;;;;;;;20.25;4.35;;;;;;;8.95;100.00;103082.31;5008431;28;20041;-61
2023/05/27 01:17:05;;;;;;;16.10;4.68;;;;;;;8.92;100.00;103092.81;5008715;28;20745;-62
2023/05/27 01:19:34;;;;;;;19.98;4.50;;;;;;;8.89;100.00;103085.78;5009444;28;20030;-59
2023/05/27 01:22:00;;;;;;;21.85;5.03;;;;;;;8.83;100.00;103088.34;5008964;28;20032;-62
2023/05/27 01:24:26;;;;;;;22.50;4.65;;;;;;;8.89;100.00;103083.16;5009806;28;20564;-61
2023/05/27 01:26:51;;;;;;;20.65;5.20;;;;;;;8.84;100.00;103083.09;5009623;28;20030;-61
2023/05/27 01:29:16;;;;;;;22.27;5.25;;;;;;;8.85;100.00;103083.97;5007919;28;20057;-61
2023/05/27 01:32:00;;;;;;;19.23;4.57;;;;;;;8.81;100.00;103075.19;5026433;28;20125;-62
2023/05/27 01:34:34;;;;;;;16.50;4.95;;;;;;;8.79;100.00;103081.31;5028630;28;20034;-61
2023/05/27 01:37:02;;;;;;;17.67;4.57;;;;;;;8.76;100.00;103081.28;5028813;28;20029;-62
2023/05/27 01:39:28;;;;;;;11.73;4.30;;;;;;;8.74;100.00;103077.72;5025091;28;20036;-62
2023/05/27 01:41:55;;;;;;;17.27;4.28;;;;;;;8.75;100.00;103083.00;5009253;28;20041;-61
2023/05/27 01:44:20;;;;;;;15.70;4.63;;;;;;;8.67;100.00;103087.31;5007608;28;20053;-61
2023/05/27 01:46:46;;;;;;;15.52;4.10;;;;;;;8.67;100.00;103084.69;5006837;28;20061;-61
2023/05/27 01:49:11;;;;;;;15.82;4.57;;;;;;;8.63;100.00;103082.88;5009786;28;20053;-59
2023/05/27 01:51:36;;;;;;;25.70;5.18;;;;;;;8.61;100.00;103079.38;5008369;28;20025;-65
2023/05/27 01:54:02;;;;;;;26.10;4.85;;;;;;;8.58;100.00;103088.09;5007701;28;20030;-64
2023/05/27 01:56:29;;;;;;;16.65;4.35;;;;;;;8.56;100.00;103085.47;5008014;28;20133;-59
2023/05/27 01:58:54;;;;;;;22.65;5.20;;;;;;;8.55;100.00;103090.69;5008585;28;20026;-61
2023/05/27 02:01:21;;;;;;;18.00;3.92;;;;;;;8.42;100.00;103089.63;5007329;28;20026;-60
2023/05/27 02:03:46;;;;;;;17.52;5.03;;;;;;;8.41;100.00;103087.88;5008498;28;20022;-59
2023/05/27 02:06:12;;;;;;;24.58;4.50;;;;;;;8.46;100.00;103084.44;5008737;28;20046;-60
2023/05/27 02:08:37;;;;;;;20.75;4.72;;;;;;;8.46;100.00;103083.56;5008879;28;20025;-58
2023/05/27 02:11:02;;;;;;;15.68;4.40;;;;;;;8.47;100.00;103080.06;5008580;28;20080;-60
2023/05/27 02:13:28;;;;;;;19.95;5.30;;;;;;;8.39;100.00;103079.97;5007402;28;20084;-61
2023/05/27 02:15:54;;;;;;;18.40;4.63;;;;;;;8.33;100.00;103077.25;5006650;28;20660;-60
2023/05/27 02:18:20;;;;;;;21.50;5.10;;;;;;;8.33;100.00;103086.03;5007916;28;20117;-60
2023/05/27 02:20:46;;;;;;;15.35;3.85;;;;;;;8.29;100.00;103079.00;5008778;28;20029;-60
2023/05/27 02:23:11;;;;;;;23.85;5.13;;;;;;;8.31;100.00;103079.00;5008047;28;20491;-62
2023/05/27 02:25:37;;;;;;;19.05;5.00;;;;;;;8.30;100.00;103078.13;5008377;28;20026;-59
2023/05/27 02:28:02;;;;;;;16.63;4.57;;;;;;;8.25;100.00;103078.94;5007334;28;20091;-61
2023/05/27 02:30:29;;;;;;;18.02;4.70;;;;;;;8.27;100.00;103087.69;5005635;28;20022;-59
2023/05/27 02:32:55;;;;;;;18.10;5.38;;;;;;;8.27;100.00;103082.44;5007215;28;20029;-63
2023/05/27 02:35:21;;;;;;;19.95;4.70;;;;;;;8.25;100.00;103082.41;5008407;28;20117;-60
2023/05/27 02:37:46;;;;;;;17.77;6.22;;;;;;;8.23;100.00;103086.78;5022292;28;20038;-61
2023/05/27 02:40:11;;;;;;;15.43;4.63;;;;;;;8.19;100.00;103082.38;5015616;28;20073;-59
2023/05/27 02:42:37;;;;;;;22.95;4.60;;;;;;;8.18;100.00;103075.34;5008721;28;20018;-60
2023/05/27 02:45:03;;;;;;;27.58;5.20;;;;;;;8.20;100.00;103078.88;5007206;28;20477;-60
2023/05/27 02:47:28;;;;;;;16.95;4.53;;;;;;;8.22;100.00;103078.03;5006886;28;20032;-61
2023/05/27 02:49:53;;;;;;;24.40;5.22;;;;;;;8.20;100.00;103076.25;5007292;28;20033;-60
2023/05/27 02:52:19;;;;;;;20.65;4.90;;;;;;;8.23;100.00;103076.28;5007330;28;20061;-60
2023/05/27 02:54:44;;;;;;;17.33;5.43;;;;;;;8.18;100.00;103077.97;4989473;28;20049;-62
2023/05/27 02:57:09;;;;;;;16.75;4.90;;;;;;;8.16;100.00;103079.72;5007085;28;20032;-61
2023/05/27 02:59:35;;;;;;;26.25;5.28;;;;;;;8.21;100.00;103078.00;5007884;28;20030;-61
2023/05/27 03:02:00;;;;;;;22.58;5.05;;;;;;;8.16;100.00;103074.47;5006396;28;20511;-61
2023/05/27 03:04:25;;;;;;;23.30;4.82;;;;;;;8.16;100.00;103077.94;5006006;28;20065;-59
2023/05/27 03:06:51;;;;;;;16.63;5.07;;;;;;;8.12;100.00;103070.03;5007424;28;20034;-60
2023/05/27 03:09:16;;;;;;;16.20;4.90;;;;;;;8.19;100.00;103074.50;5006957;28;20381;-61
2023/05/27 03:11:41;;;;;;;20.50;4.95;;;;;;;8.14;100.00;103081.41;5006864;28;20022;-61
2023/05/27 03:14:07;;;;;;;21.05;4.68;;;;;;;8.13;100.00;103071.78;5007515;28;20476;-60
2023/05/27 03:16:32;;;;;;;19.25;5.00;;;;;;;8.10;100.00;103072.63;5006021;28;20026;-62
2023/05/27 03:18:57;;;;;;;21.52;4.97;;;;;;;8.07;100.00;103081.34;5005956;28;20030;-62
2023/05/27 03:21:23;;;;;;;19.98;4.93;;;;;;;8.00;100.00;103079.50;5006040;28;20038;-61
2023/05/27 03:23:48;;;;;;;21.95;5.13;;;;;;;7.96;100.00;103081.22;5006933;28;20030;-61
2023/05/27 03:26:13;;;;;;;18.00;4.85;;;;;;;8.00;100.00;103083.88;5006368;28;20029;-60
2023/05/27 03:28:38;;;;;;;25.88;5.78;;;;;;;8.06;100.00;103068.19;5005637;28;20030;-63
2023/05/27 03:31:05;;;;;;;22.10;4.97;;;;;;;8.02;100.00;103075.16;5006538;28;20018;-61
2023/05/27 03:33:30;;;;;;;21.42;5.00;;;;;;;8.02;100.00;103072.53;5010280;28;20056;-60
2023/05/27 03:35:56;;;;;;;22.92;4.88;;;;;;;8.00;100.00;103076.88;5017286;28;20080;-60
2023/05/27 03:38:21;;;;;;;27.20;5.18;;;;;;;7.95;100.00;103076.81;5007374;28;20025;-63
2023/05/27 03:40:46;;;;;;;19.60;4.97;;;;;;;7.96;100.00;103072.44;5006524;28;20075;-59
2023/05/27 03:43:12;;;;;;;18.95;4.88;;;;;;;7.97;100.00;103064.59;5006900;28;20026;-61
2023/05/27 03:45:37;;;;;;;18.83;5.32;;;;;;;8.00;100.00;103055.00;5005919;28;20029;-57
2023/05/27 03:48:02;;;;;;;22.88;5.00;;;;;;;8.05;100.00;103064.69;5007148;28;20057;-60
2023/05/27 03:50:28;;;;;;;22.48;4.88;;;;;;;8.00;100.00;103062.88;5002744;28;20029;-59
2023/05/27 03:52:53;;;;;;;25.40;5.65;;;;;;;7.90;100.00;103062.75;5007012;28;20445;-59
2023/05/27 03:55:20;;;;;;;14.02;4.60;;;;;;;7.97;100.00;103058.44;5006971;28;20054;-60
2023/05/27 03:57:46;;;;;;;20.38;5.35;;;;;;;7.98;100.00;103055.00;5007012;28;20025;-59
2023/05/27 04:00:12;;;;;;;22.13;5.00;;;;;;;7.99;100.00;103056.75;5006657;28;20022;-61
2023/05/27 04:02:38;;;;;;;21.95;4.78;;;;;;;8.07;100.00;103048.97;5007274;28;20026;-61
2023/05/27 04:05:04;;;;;;;24.75;5.80;;;;;;;7.95;100.00;103047.06;5006430;28;20113;-60
2023/05/27 04:07:31;;;;;;;19.05;4.78;;;;;;;8.02;100.00;103040.13;5007381;28;20018;-59
2023/05/27 04:09:56;;;;;;;21.05;5.80;;;;;;;8.04;100.00;103039.28;5006618;28;20457;-59
2023/05/27 04:12:22;;;;;;;21.88;5.57;;;;;;;8.15;100.00;103046.41;5005195;28;20022;-59
2023/05/27 04:14:47;;;;;;;30.10;6.03;;;;;;;8.11;100.00;103042.00;5006523;28;20441;-62
2023/05/27 04:17:13;;;;;;;25.17;4.65;;;;;;;8.13;100.00;103048.16;5006326;28;20025;-61
2023/05/27 04:19:38;;;;;;;17.58;4.78;;;;;;;8.19;100.00;103043.84;5007154;28;20080;-60
2023/05/27 04:22:04;;;;;;;19.45;5.85;;;;;;;8.23;100.00;103047.41;5006241;28;20029;-59
2023/05/27 04:24:29;;;;;;;23.10;5.88;;;;;;;8.15;100.00;103047.31;5005468;28;20025;-60
2023/05/27 04:26:55;;;;;;;19.52;5.25;;;;;;;8.10;100.00;103056.88;5006482;28;20038;-58
2023/05/27 04:29:22;;;;;;;23.45;5.75;;;;;;;8.20;100.00;103050.88;5006479;28;20111;-58
2023/05/27 04:31:47;;;;;;;21.40;5.70;;;;;;;8.21;100.00;103051.75;5005763;28;20022;-58
2023/05/27 04:34:13;;;;;;;18.90;4.88;;;;;;;8.22;100.00;103045.66;5006859;28;20037;-59
2023/05/27 04:36:38;;;;;;;20.48;4.82;;;;;;;8.29;100.00;103050.09;5005329;28;20022;-59
2023/05/27 04:39:04;;;;;;;20.88;4.80;;;;;;;8.38;100.00;103051.06;5008689;28;20113;-61
2023/05/27 04:41:32;;;;;;;24.65;4.82;;;;;;;8.31;100.00;103053.59;5010425;28;20045;-60
2023/05/27 04:44:00;;;;;;;16.52;4.53;;;;;;;8.48;100.00;103058.16;5009703;28;20030;-59
2023/05/27 04:46:26;;;;;;;30.65;6.90;;;;;;;8.52;100.00;103054.69;5008425;28;20054;-60
2023/05/27 04:48:52;;;;;;;22.23;5.22;;;;;;;8.67;100.00;103051.38;5010376;28;20115;-60
2023/05/27 04:51:18;;;;;;;22.17;4.55;;;;;;;8.65;100.00;103062.75;5009830;28;20029;-61
2023/05/27 04:53:45;;;;;;;15.45;4.80;;;;;;;8.75;100.00;103068.97;5010003;28;20022;-60
2023/05/27 04:56:14;;;;;;;19.25;4.43;;;;;;;8.80;100.00;103059.41;5010853;28;20014;-61
2023/05/27 04:58:39;;;;;;;22.58;4.32;;;;;;;8.76;100.00;103055.84;5009911;28;20087;-61
2023/05/27 05:01:05;;;;;;;22.90;5.35;;;;;;;8.94;100.00;103054.28;5009415;28;20022;-58
2023/05/27 05:03:39;;;;;;;24.08;5.35;;;;;;;9.03;100.00;103062.22;5010103;28;20357;-61
2023/05/27 05:06:05;;;;;;;20.13;5.15;;;;;;;9.08;100.00;103047.38;5009270;28;20173;-60
2023/05/27 05:08:31;;;;;;;24.23;5.88;;;;;;;9.22;100.00;103038.72;5010333;28;20069;-59
2023/05/27 05:10:57;;;;;;;19.88;4.80;;;;;;;9.28;100.00;103035.22;5009851;28;20459;-59
2023/05/27 05:13:22;;;;;;;18.25;4.30;;;;;;;9.19;100.00;103042.22;5009723;28;20379;-59
2023/05/27 05:15:47;;;;;;;18.98;5.40;;;;;;;9.35;100.00;103040.56;5007164;28;20116;-62
2023/05/27 05:18:13;;;;;;;20.35;4.70;;;;;;;9.37;100.00;103037.94;5009675;28;20018;-63
2023/05/27 05:20:38;;;;;;;21.90;4.82;;;;;;;9.20;100.00;103036.06;5009361;28;20036;-66
2023/05/27 05:23:04;;;;;;;15.65;4.70;;;;;;;9.29;100.00;103029.97;5009078;28;20022;-61
2023/05/27 05:25:35;;;;;;;29.17;5.40;;;;;;;9.48;100.00;103032.72;5009224;28;20038;-63
2023/05/27 05:28:00;;;;;;;18.77;4.30;;;;;;;9.61;100.00;103031.06;5008153;28;20063;-62
2023/05/27 05:30:26;;;;;;;20.08;5.05;;;;;;;9.63;100.00;103033.69;5006901;28;20030;-65
2023/05/27 05:32:51;;;;;;;23.08;4.72;;;;;;;9.69;100.00;103023.22;5005243;28;20026;-63
2023/05/27 05:35:17;;;;;;;22.98;5.20;;;;;;;9.78;100.00;103031.13;5008135;28;20021;-63
2023/05/27 05:37:42;;;;;;;17.73;4.13;;;;;;;9.92;100.00;103022.41;5007342;28;20489;-63
2023/05/27 05:40:08;;;;;;;19.05;4.65;;;;;;;10.04;100.00;103025.09;5007763;28;20426;-62
2023/05/27 05:42:33;;;;;;;20.60;5.25;;;;;;;9.95;100.00;103030.31;5007516;28;20645;-62
2023/05/27 05:44:58;;;;;;;21.45;4.85;;;;;;;9.84;100.00;103023.25;5007998;28;20025;-62
2023/05/27 05:47:24;;;;;;;18.05;4.88;;;;;;;10.08;100.00;103018.06;5007969;28;20022;-62
2023/05/27 05:49:49;;;;;;;17.60;5.30;;;;;;;10.17;100.00;103014.63;5004874;28;20038;-62
2023/05/27 05:52:14;;;;;;;17.98;4.53;;;;;;;10.30;100.00;103026.91;5002537;28;20391;-62
2023/05/27 05:54:40;;;;;;;20.10;5.25;;;;;;;10.33;100.00;103020.78;5005264;28;20491;-63
2023/05/27 05:57:05;;;;;;;19.85;5.70;;;;;;;10.23;100.00;103014.59;4997226;28;20018;-62
2023/05/27 05:59:31;;;;;;;18.73;4.70;;;;;;;10.21;100.00;103016.38;4991136;28;20026;-63
2023/05/27 06:01:57;;;;;;;22.35;4.35;;;;;;;10.34;100.00;103014.63;5005484;28;20406;-60
2023/05/27 06:04:22;;;;;;;20.17;4.57;;;;;;;10.39;100.00;103014.66;4997410;28;20042;-63
2023/05/27 06:06:48;;;;;;;17.92;4.38;;;;;;;10.44;100.00;103010.25;4997510;28;20097;-63
2023/05/27 06:09:13;;;;;;;16.80;4.60;;;;;;;10.42;100.00;103009.38;5007420;28;20053;-63
2023/05/27 06:11:38;;;;;;;16.73;4.32;;;;;;;10.57;100.00;103009.44;5007605;28;20037;-61
2023/05/27 06:14:04;;;;;;;23.30;5.15;;;;;;;10.61;100.00;103002.41;5005856;28;20055;-63
2023/05/27 06:16:29;;;;;;;17.95;4.38;;;;;;;10.65;100.00;103003.31;4992444;28;20034;-62
2023/05/27 06:18:55;;;;;;;20.92;4.88;;;;;;;10.81;100.00;102999.75;4996105;28;20136;-62
2023/05/27 06:21:21;;;;;;;24.77;5.15;;;;;;;10.59;100.00;103002.41;5007530;28;20524;-62
2023/05/27 06:23:46;;;;;;;22.55;5.07;;;;;;;10.61;100.00;103000.66;5004882;28;20026;-62
2023/05/27 06:26:12;;;;;;;19.05;4.43;;;;;;;10.88;100.00;102987.47;4992531;28;20137;-62
2023/05/27 06:28:37;;;;;;;25.60;5.38;;;;;;;10.89;100.00;102985.72;5005771;28;20112;-62
2023/05/27 06:31:02;;;;;;;21.23;4.90;;;;;;;10.82;100.00;102980.44;5007067;28;20042;-61
2023/05/27 06:33:28;;;;;;;16.02;4.65;;;;;;;10.91;100.00;102976.03;5006390;28;20054;-63
2023/05/27 06:35:53;;;;;;;20.80;4.70;;;;;;;11.20;100.00;102965.44;5007041;28;20034;-61
2023/05/27 06:38:18;;;;;;;16.30;4.53;;;;;;;11.30;100.00;102966.31;5006303;28;20038;-61
2023/05/27 06:40:44;;;;;;;18.30;4.07;;;;;;;11.23;100.00;102962.78;5003726;28;20022;-62
2023/05/27 06:43:09;;;;;;;20.60;4.35;;;;;;;11.21;100.00;102966.31;5004010;28;20621;-62
2023/05/27 06:45:35;;;;;;;22.90;5.18;;;;;;;11.36;100.00;102960.13;4995493;28;20071;-62
2023/05/27 06:48:00;;;;;;;18.02;4.53;;;;;;;11.59;100.00;102953.88;4989784;28;20019;-63
2023/05/27 06:50:25;;;;;;;29.10;5.65;;;;;;;11.58;100.00;102954.75;5008054;28;20164;-62
2023/05/27 06:52:51;;;;;;;22.80;4.20;;;;;;;11.77;100.00;102958.19;5007469;28;20057;-61
2023/05/27 06:55:17;;;;;;;27.15;5.28;;;;;;;11.91;100.00;102955.47;4996891;28;20389;-62
2023/05/27 06:57:43;;;;;;;17.55;4.28;;;;;;;11.98;100.00;102961.63;4995308;28;20053;-62
2023/05/27 07:00:09;;;;;;;23.23;4.53;;;;;;;11.97;100.00;102957.19;5008783;28;20064;-62
2023/05/27 07:02:34;;;;;;;21.20;5.40;;;;;;;12.23;100.00;102962.38;5008287;28;20029;-62
2023/05/27 07:04:59;;;;;;;19.52;4.80;;;;;;;12.29;100.00;102953.53;5000997;28;20386;-63
2023/05/27 07:07:25;;;;;;;22.20;4.82;;;;;;;12.09;100.00;102954.53;5004065;28;20116;-62
2023/05/27 07:09:50;;;;;;;17.38;4.32;;;;;;;12.32;100.00;102953.50;5009163;28;20041;-62
2023/05/27 07:12:15;;;;;;;27.23;5.18;;;;;;;12.32;100.00;102961.44;5006585;28;20034;-62
2023/05/27 07:14:41;;;;;;;18.38;4.72;;;;;;;12.41;100.00;102960.50;5003607;28;20037;-61
2023/05/27 07:17:06;;;;;;;19.48;4.90;;;;;;;12.62;100.00;102954.13;5006203;28;20033;-61
2023/05/27 07:19:32;;;;;;;21.10;4.75;;;;;;;12.73;100.00;102951.38;5003906;28;20405;-62
2023/05/27 07:21:57;;;;;;;23.25;4.50;;;;;;;12.89;100.00;102951.25;5003465;28;20030;-63
2023/05/27 07:24:22;;;;;;;23.88;5.13;;;;;;;13.01;100.00;102950.25;5003140;28;20028;-64
2023/05/27 07:26:48;;;;;;;30.25;4.88;;;;;;;12.64;100.00;102941.78;5003733;28;20037;-64
2023/05/27 07:29:13;;;;;;;26.05;4.75;;;;;;;12.80;100.00;102940.75;5003678;28;20029;-63
2023/05/27 07:31:38;;;;;;;20.65;5.10;;;;;;;12.69;100.00;102943.50;5002372;28;20025;-61
2023/05/27 07:34:04;;;;;;;20.25;4.57;;;;;;;12.89;100.00;102945.97;5004290;28;20026;-61
2023/05/27 07:36:29;;;;;;;16.27;4.15;;;;;;;13.04;100.00;102939.66;5002612;28;20550;-62
2023/05/27 07:38:54;;;;;;;21.55;4.70;;;;;;;13.02;100.00;102936.13;5005608;28;20108;-63
2023/05/27 07:41:21;;;;;;;20.65;5.35;;;;;;;13.36;100.00;102930.44;5004651;28;20150;-63
2023/05/27 07:43:46;;;;;;;19.58;4.95;;;;;;;13.50;100.00;102929.44;5004155;28;20076;-62
2023/05/27 07:46:12;;;;;;;21.55;5.32;;;;;;;13.52;100.00;102930.31;5004592;28;20029;-62
2023/05/27 07:48:37;;;;;;;20.45;4.93;;;;;;;13.67;100.00;102929.22;5005308;28;20437;-60
2023/05/27 07:51:03;;;;;;;27.85;5.68;;;;;;;13.30;100.00;102924.38;5003834;28;20026;-62
2023/05/27 07:53:28;;;;;;;24.52;4.68;;;;;;;13.34;100.00;102932.22;5004411;28;20278;-60
2023/05/27 07:55:53;;;;;;;16.02;5.32;;;;;;;13.21;100.00;102926.22;5005019;28;20135;-64
2023/05/27 07:58:19;;;;;;;17.35;4.80;;;;;;;13.31;100.00;102929.66;5004737;28;20310;-61
2023/05/27 08:00:44;;;;;;;14.55;3.80;;;;;;;13.44;100.00;102921.53;5003167;28;20033;-62
2023/05/27 08:03:09;;;;;;;21.73;4.95;;;;;;;13.52;100.00;102922.34;5005841;28;20029;-62
2023/05/27 08:05:35;;;;;;;24.42;5.07;;;;;;;13.71;100.00;102919.44;5004169;28;20117;-60
2023/05/27 08:08:00;;;;;;;25.48;4.50;;;;;;;13.56;100.00;102916.13;5003004;28;20369;-61
2023/05/27 08:10:26;;;;;;;18.50;5.03;;;;;;;13.68;100.00;102916.84;5005395;28;20473;-61
2023/05/27 08:12:51;;;;;;;22.40;5.20;;;;;;;13.76;100.00;102912.31;5006519;28;20022;-62
2023/05/27 08:15:17;;;;;;;22.10;5.38;;;;;;;13.82;100.00;102912.22;5007961;28;20156;-60
2023/05/27 08:17:43;;;;;;;23.65;5.50;;;;;;;13.61;100.00;102916.91;5008184;28;20489;-65
2023/05/27 08:20:12;;;;;;;23.75;4.80;;;;;;;13.93;100.00;102913.84;5009679;28;20053;-60
2023/05/27 08:22:37;;;;;;;25.73;4.75;;;;;;;13.90;100.00;102907.69;5006783;28;20079;-59
2023/05/27 08:25:03;;;;;;;21.73;5.20;;;;;;;14.12;100.00;102901.19;5007644;28;20034;-57
2023/05/27 08:27:47;;;;;;;22.38;5.43;;;;;;;13.93;100.00;102892.66;5009277;28;20026;-60
2023/05/27 08:30:13;;;;;;;22.88;5.05;;;;;;;14.11;100.00;102889.69;5005809;28;20026;-62
2023/05/27 08:32:40;;;;;;;15.68;5.10;;;;;;;14.01;100.00;102894.28;5009277;28;20029;-59
2023/05/27 08:35:06;;;;;;;16.90;4.82;;;;;;;13.96;100.00;102897.88;5007125;28;20069;-59
2023/05/27 08:37:31;;;;;;;20.63;5.10;;;;;;;14.14;100.00;102887.00;5007686;28;20994;-60
2023/05/27 08:39:57;;;;;;;21.92;5.25;;;;;;;14.09;100.00;102877.38;5007747;28;20552;-59
2023/05/27 08:42:23;;;;;;;22.02;5.70;;;;;;;14.18;100.00;102869.25;5008470;28;20026;-60
2023/05/27 08:44:49;;;;;;;23.77;5.47;;;;;;;14.40;100.00;102864.47;5004319;28;20076;-61
2023/05/27 08:47:15;;;;;;;18.13;4.50;;;;;;;14.06;100.00;102862.38;5009147;28;20056;-59
2023/05/27 08:49:41;;;;;;;20.63;5.28;;;;;;;14.54;100.00;102858.03;5008171;28;20058;-61
2023/05/27 08:52:09;;;;;;;18.60;5.00;;;;;;;14.59;100.00;102850.88;5006669;28;20567;-61
2023/05/27 08:54:35;;;;;;;18.65;5.32;;;;;;;14.33;100.00;102859.31;5009017;28;20033;-60
2023/05/27 08:57:07;;;;;;;25.73;5.63;;;;;;;14.42;100.00;102850.31;5006057;28;20037;-62
2023/05/27 08:59:33;;;;;;;19.40;5.53;;;;;;;14.80;100.00;102850.50;5008111;28;20413;-61
2023/05/27 09:01:58;;;;;;;10.73;4.38;;;;;;;14.83;100.00;102843.38;5008221;28;20091;-61
2023/05/27 09:04:24;;;;;;;24.33;5.93;;;;;;;14.69;100.00;102832.13;5005021;28;20489;-61
2023/05/27 09:06:50;;;;;;;21.50;5.50;;;;;;;14.80;100.00;102838.13;5007040;28;20041;-62
2023/05/27 09:09:18;;;;;;;24.10;5.60;;;;;;;14.77;100.00;102830.19;5004594;28;20026;-59
2023/05/27 09:11:44;;;;;;;28.83;5.85;;;;;;;14.69;100.00;102830.34;4987664;28;20501;-60
2023/05/27 09:14:19;;;;;;;23.48;5.05;;;;;;;14.91;100.00;102825.50;5003185;28;20105;-61
2023/05/27 09:16:45;;;;;;;18.70;4.90;;;;;;;15.06;100.00;102834.06;5001252;28;20030;-63
2023/05/27 09:19:17;;;;;;;28.65;5.47;;;;;;;15.44;100.00;102827.97;5008648;28;20169;-60
2023/05/27 09:21:43;;;;;;;21.00;4.95;;;;;;;15.62;100.00;102824.84;5005435;28;20034;-63
2023/05/27 09:24:10;;;;;;;18.40;4.25;;;;;;;15.86;99.30;102824.31;5007618;28;20064;-60
2023/05/27 09:26:35;;;;;;;22.58;5.53;;;;;;;16.02;98.28;102816.88;5007222;28;20037;-60
2023/05/27 09:29:03;;;;;;;21.67;5.03;;;;;;;15.81;98.15;102821.78;5006008;28;20030;-60
2023/05/27 09:31:28;;;;;;;24.17;4.72;;;;;;;16.17;97.81;102816.44;5007347;28;20033;-61
2023/05/27 09:33:53;;;;;;;24.05;5.63;;;;;;;16.44;97.88;102820.22;5004402;28;20025;-58
2023/05/27 09:36:22;;;;;;;22.20;5.65;;;;;;;16.63;94.52;102816.13;5008418;28;20018;-61
2023/05/27 09:38:48;;;;;;;23.50;5.55;;;;;;;16.50;95.18;102814.72;5005251;28;20421;-61
2023/05/27 09:41:13;;;;;;;18.35;5.10;;;;;;;16.12;96.63;102807.75;5008215;28;20112;-61
2023/05/27 09:43:39;;;;;;;20.60;5.60;;;;;;;16.17;96.77;102813.78;5007419;28;20018;-62
2023/05/27 09:46:11;;;;;;;21.77;5.10;;;;;;;16.32;96.68;102816.09;5005760;28;20032;-61
2023/05/27 09:48:37;;;;;;;24.30;5.50;;;;;;;16.63;95.27;102818.81;5006313;28;20113;-60
2023/05/27 09:51:03;;;;;;;19.52;5.43;;;;;;;16.78;95.96;102812.16;5007108;28;20534;-61
2023/05/27 09:53:30;;;;;;;21.45;5.82;;;;;;;16.77;94.24;102813.06;5007949;28;20153;-60
2023/05/27 09:55:56;;;;;;;24.40;5.18;;;;;;;16.84;95.47;102803.13;5007202;28;20021;-62
2023/05/27 09:58:23;;;;;;;25.00;5.95;;;;;;;17.10;97.06;102804.16;5006123;28;20032;-63
2023/05/27 10:00:49;;;;;;;18.92;5.80;;;;;;;16.89;93.26;102806.50;5006206;28;20236;-61
2023/05/27 10:03:16;;;;;;;18.65;5.25;;;;;;;16.97;93.08;102794.75;5007121;28;20388;-62
2023/05/27 10:05:43;;;;;;;23.48;5.80;;;;;;;16.97;94.67;102803.63;5004026;28;20048;-62
2023/05/27 10:08:08;;;;;;;21.42;5.30;;;;;;;16.85;95.87;102796.88;5005653;28;20117;-63
2023/05/27 10:10:33;;;;;;;22.30;5.88;;;;;;;16.92;92.71;102795.78;5006787;28;20364;-61
2023/05/27 10:12:59;;;;;;;19.42;5.30;;;;;;;17.27;92.97;102794.78;5005582;28;20500;-65
2023/05/27 10:15:32;;;;;;;22.00;5.43;;;;;;;16.93;91.39;102799.31;5006708;28;20477;-61
2023/05/27 10:17:59;;;;;;;20.95;5.50;;;;;;;17.42;92.08;102794.31;5006272;28;20109;-61
2023/05/27 10:20:31;;;;;;;16.85;5.50;;;;;;;17.56;90.60;102790.31;5008008;28;20026;-63
2023/05/27 10:23:08;;;;;;;22.75;5.57;;;;;;;17.67;91.68;102774.84;5005885;28;20488;-61
2023/05/27 10:25:38;;;;;;;21.55;6.35;;;;;;;17.65;94.79;102779.38;5005755;28;20022;-63
2023/05/27 10:28:04;;;;;;;19.55;6.93;;;;;;;17.64;91.56;102771.44;5006146;28;20038;-64
2023/05/27 10:30:30;;;;;;;47.42;18.23;;;;;;;18.01;91.58;102770.19;5001404;28;20067;-64
2023/05/27 10:32:55;;;;;;;24.55;6.07;;;;;;;18.10;86.87;102765.44;5006975;28;20044;-65
2023/05/27 10:35:26;;;;;;;22.08;6.50;;;;;;;18.59;88.32;102753.91;4996821;28;20021;-62
2023/05/27 10:37:51;;;;;;;21.90;6.07;;;;;;;18.04;88.20;102753.19;5004150;28;20487;-62
2023/05/27 10:40:24;;;;;;;18.42;5.60;;;;;;;17.99;89.00;102752.47;5002192;28;20060;-66
2023/05/27 10:43:02;;;;;;;18.48;5.55;;;;;;;18.40;90.13;102747.50;5002807;28;20033;-63
2023/05/27 10:45:33;;;;;;;21.55;5.78;;;;;;;18.60;86.42;102748.53;5005441;28;20109;-61
2023/05/27 10:47:59;;;;;;;23.20;5.40;;;;;;;18.90;86.64;102744.75;5002292;28;20418;-62
2023/05/27 10:50:32;;;;;;;16.27;5.35;;;;;;;19.12;85.96;102741.25;5000868;28;20025;-62
2023/05/27 10:52:59;;;;;;;23.55;6.85;;;;;;;18.93;85.07;102742.81;5003471;28;20061;-61
2023/05/27 10:55:24;;;;;;;15.85;5.50;;;;;;;19.10;81.28;102727.97;5005096;28;20026;-61
2023/05/27 10:57:51;;;;;;;18.15;5.78;;;;;;;18.96;84.73;102724.94;5000760;28;20526;-61
2023/05/27 11:00:18;;;;;;;22.88;5.90;;;;;;;19.26;85.09;102724.69;5000107;28;20026;-62
2023/05/27 11:02:44;;;;;;;14.50;5.65;;;;;;;19.41;82.13;102721.34;5003916;28;20068;-63
2023/05/27 11:05:10;;;;;;;19.50;5.28;;;;;;;19.65;85.60;102717.69;4995597;28;20039;-62
2023/05/27 11:07:38;;;;;;;25.50;7.13;;;;;;;19.66;82.13;102706.94;5002664;28;20495;-67
2023/05/27 11:10:05;;;;;;;26.08;5.47;;;;;;;19.67;79.42;102700.66;5001944;28;20037;-62